Time;durP1;ratioP1;P1;durP2;ratioP2;P2;SDS_P1;SDS_P2;PMS_P1;PMS_P2;Temp;Humidity;BMP_temperature;BMP_pressure;BME280_temperature;BME280_humidity;BME280_pressure;Samples;Min_cycle;Max_cycle;Signal;HPM_P1;HPM_P2
2021/06/24 00:02:05;;;;;;;8.73;8.00;;;19.90;99.90;;;;;;5011509;28;20219;-73
2021/06/24 00:04:31;;;;;;;9.50;8.70;;;19.90;99.90;;;;;;5021436;28;20195;-74
2021/06/24 00:06:56;;;;;;;10.10;9.00;;;20.00;99.90;;;;;;5020377;28;20187;-72
2021/06/24 00:09:22;;;;;;;9.37;8.40;;;19.90;99.90;;;;;;5020320;28;20271;-73
2021/06/24 00:11:48;;;;;;;10.60;8.40;;;19.90;99.90;;;;;;5020808;28;20194;-72
2021/06/24 00:14:14;;;;;;;9.63;8.80;;;19.90;99.90;;;;;;5019975;28;20442;-73
2021/06/24 00:16:39;;;;;;;8.83;8.23;;;19.90;99.90;;;;;;5021334;28;20237;-73
2021/06/24 00:19:05;;;;;;;9.40;8.67;;;19.80;99.90;;;;;;5016483;28;20208;-72
2021/06/24 00:21:30;;;;;;;9.93;9.20;;;19.70;99.90;;;;;;5016412;28;20241;-72
2021/06/24 00:23:56;;;;;;;9.50;8.70;;;19.80;99.90;;;;;;5010266;28;20288;-73
2021/06/24 00:26:22;;;;;;;10.53;9.73;;;19.80;99.90;;;;;;5019762;28;20189;-72
2021/06/24 00:28:47;;;;;;;10.00;9.20;;;19.70;99.90;;;;;;5020591;28;20690;-72
2021/06/24 00:31:13;;;;;;;10.57;9.60;;;19.80;99.90;;;;;;5019903;28;20242;-72
2021/06/24 00:33:39;;;;;;;10.70;9.87;;;19.80;99.90;;;;;;5007947;28;20286;-72
2021/06/24 00:36:05;;;;;;;9.90;9.10;;;19.70;99.90;;;;;;5017116;28;20516;-72
2021/06/24 00:38:30;;;;;;;10.20;9.50;;;19.60;99.90;;;;;;5019969;28;20229;-71
2021/06/24 00:40:56;;;;;;;11.17;10.27;;;19.50;99.90;;;;;;5020644;28;20230;-72
2021/06/24 00:43:24;;;;;;;9.50;8.80;;;19.40;99.90;;;;;;5017386;28;20284;-72
2021/06/24 00:45:50;;;;;;;9.40;8.77;;;19.40;99.90;;;;;;5018625;28;20444;-72
2021/06/24 00:48:15;;;;;;;9.20;8.50;;;19.40;99.90;;;;;;5018111;28;21009;-72
2021/06/24 00:50:44;;;;;;;11.13;9.43;;;19.50;99.90;;;;;;5014635;28;20195;-72
2021/06/24 00:53:10;;;;;;;10.50;9.50;;;19.60;99.90;;;;;;5015332;28;20703;-72
2021/06/24 00:55:48;;;;;;;10.90;9.83;;;19.50;99.90;;;;;;5015604;28;20446;-72
2021/06/24 00:58:25;;;;;;;9.80;9.00;;;19.60;99.90;;;;;;5017635;28;20563;-72
2021/06/24 01:00:54;;;;;;;10.17;9.40;;;19.40;99.90;;;;;;5012624;28;20433;-72
2021/06/24 01:03:21;;;;;;;9.87;9.10;;;19.40;99.90;;;;;;5019554;28;20434;-73
2021/06/24 01:05:47;;;;;;;11.40;9.60;;;19.40;99.90;;;;;;5017155;28;20967;-71
2021/06/24 01:08:15;;;;;;;10.50;9.80;;;19.40;99.90;;;;;;5010831;28;20885;-73
2021/06/24 01:10:46;;;;;;;10.83;9.93;;;19.50;99.90;;;;;;5016494;28;20839;-72
2021/06/24 01:13:13;;;;;;;8.83;8.23;;;19.50;99.90;;;;;;5023896;28;20426;-72
2021/06/24 01:15:40;;;;;;;11.20;10.30;;;19.40;99.90;;;;;;5016209;28;20514;-72
2021/06/24 01:18:06;;;;;;;9.67;8.80;;;19.40;99.90;;;;;;5004147;28;20467;-72
2021/06/24 01:20:36;;;;;;;9.83;9.13;;;19.30;99.90;;;;;;5019664;28;20464;-72
2021/06/24 01:23:05;;;;;;;9.33;8.60;;;19.30;99.90;;;;;;5003341;28;20786;-73
2021/06/24 01:25:31;;;;;;;10.37;9.60;;;19.20;99.90;;;;;;5020217;28;20434;-72
2021/06/24 01:28:06;;;;;;;10.93;9.73;;;19.20;99.90;;;;;;5014417;28;20463;-72
2021/06/24 01:30:33;;;;;;;11.17;10.33;;;19.20;99.90;;;;;;5008971;28;20418;-73
2021/06/24 01:32:59;;;;;;;12.53;11.40;;;19.20;99.90;;;;;;5015883;28;20443;-73
2021/06/24 01:35:27;;;;;;;12.40;11.10;;;19.30;99.90;;;;;;5019105;28;20505;-74
2021/06/24 01:38:01;;;;;;;12.63;11.43;;;19.30;99.90;;;;;;5019587;28;20739;-73
2021/06/24 01:40:28;;;;;;;11.77;10.67;;;19.20;99.90;;;;;;5014356;28;20440;-72
2021/06/24 01:42:54;;;;;;;11.30;10.40;;;19.20;99.90;;;;;;5019245;28;20769;-73
2021/06/24 01:45:21;;;;;;;12.87;11.63;;;19.10;99.90;;;;;;5012589;28;20979;-73
2021/06/24 01:47:47;;;;;;;11.23;10.23;;;19.00;99.90;;;;;;5014496;28;20421;-73
2021/06/24 01:50:13;;;;;;;11.37;10.47;;;19.00;99.90;;;;;;5016051;28;20416;-73
2021/06/24 01:52:43;;;;;;;11.80;10.90;;;19.00;99.90;;;;;;5010220;28;20207;-73
2021/06/24 01:55:11;;;;;;;11.43;10.30;;;19.10;99.90;;;;;;5014536;28;20965;-72
2021/06/24 01:57:37;;;;;;;12.47;11.40;;;19.00;99.90;;;;;;5014349;28;20427;-73
2021/06/24 02:00:11;;;;;;;12.20;11.10;;;19.00;99.90;;;;;;5013366;28;20454;-72
2021/06/24 02:02:39;;;;;;;11.80;11.00;;;18.90;99.90;;;;;;5028235;28;20203;-76
2021/06/24 02:05:06;;;;;;;12.00;10.93;;;18.90;99.90;;;;;;5043071;28;20433;-75
2021/06/24 02:07:32;;;;;;;12.50;11.47;;;18.80;99.90;;;;;;5035431;28;20437;-74
2021/06/24 02:09:58;;;;;;;12.40;11.40;;;18.70;99.90;;;;;;5037491;28;20421;-76
2021/06/24 02:12:24;;;;;;;11.50;10.67;;;18.70;99.90;;;;;;5035324;28;20199;-74
2021/06/24 02:14:49;;;;;;;13.20;12.00;;;18.70;99.90;;;;;;5042403;28;20186;-74
2021/06/24 02:17:15;;;;;;;12.43;11.43;;;18.70;99.90;;;;;;5002178;28;20671;-73
2021/06/24 02:19:41;;;;;;;12.80;11.60;;;18.90;99.90;;;;;;5010686;28;20289;-73
2021/06/24 02:22:06;;;;;;;12.70;11.73;;;19.00;99.90;;;;;;5005976;28;20201;-73
2021/06/24 02:24:32;;;;;;;12.07;10.97;;;19.00;99.90;;;;;;5017073;28;20194;-73
2021/06/24 02:26:57;;;;;;;12.30;11.20;;;19.00;99.90;;;;;;5013659;28;20224;-73
2021/06/24 02:29:23;;;;;;;12.60;11.60;;;19.00;99.90;;;;;;5013273;28;20211;-71
2021/06/24 02:31:48;;;;;;;13.30;12.00;;;19.00;99.90;;;;;;5018819;28;20197;-71
2021/06/24 02:34:17;;;;;;;14.47;13.23;;;19.00;99.90;;;;;;5016359;28;20207;-72
2021/06/24 02:36:42;;;;;;;13.77;12.67;;;18.90;99.90;;;;;;5015336;28;20190;-71
2021/06/24 02:39:08;;;;;;;13.10;12.10;;;18.90;99.90;;;;;;5012408;28;20465;-73
2021/06/24 02:41:35;;;;;;;14.60;13.40;;;18.80;99.90;;;;;;5014702;28;20187;-72
2021/06/24 02:44:02;;;;;;;13.10;12.00;;;18.60;99.90;;;;;;5002712;28;20215;-71
2021/06/24 02:46:28;;;;;;;14.30;12.97;;;18.50;99.90;;;;;;5013697;28;20422;-71
2021/06/24 02:48:54;;;;;;;14.50;13.03;;;18.40;99.90;;;;;;5009726;28;20435;-72
2021/06/24 02:51:19;;;;;;;13.73;12.57;;;18.40;99.90;;;;;;5011787;28;20191;-73
2021/06/24 02:53:45;;;;;;;14.67;13.27;;;18.40;99.90;;;;;;5016199;28;20289;-71
2021/06/24 02:56:10;;;;;;;12.70;11.67;;;18.30;99.90;;;;;;5022584;28;20191;-71
2021/06/24 02:58:36;;;;;;;13.63;12.33;;;18.30;99.90;;;;;;5014394;28;20214;-72
2021/06/24 03:01:03;;;;;;;15.87;14.60;;;18.30;99.90;;;;;;5014059;28;20218;-71
2021/06/24 03:03:29;;;;;;;13.17;12.07;;;18.30;99.90;;;;;;5018713;28;20565;-71
2021/06/24 03:05:54;;;;;;;13.90;12.43;;;18.30;99.90;;;;;;5014987;28;20419;-72
2021/06/24 03:08:21;;;;;;;13.60;12.57;;;18.30;99.90;;;;;;5021875;28;20789;-72
2021/06/24 03:10:47;;;;;;;13.07;12.03;;;18.30;99.90;;;;;;5000372;28;20330;-78
2021/06/24 03:13:13;;;;;;;15.80;12.87;;;18.30;99.90;;;;;;5015792;28;20474;-76
2021/06/24 03:15:39;;;;;;;12.70;11.70;;;18.30;99.90;;;;;;5014606;28;20442;-79
2021/06/24 03:18:05;;;;;;;13.80;12.43;;;18.40;99.90;;;;;;5018781;28;20203;-76
2021/06/24 03:20:31;;;;;;;13.47;12.27;;;18.40;99.90;;;;;;5020894;28;20188;-76
2021/06/24 03:22:58;;;;;;;13.80;12.63;;;18.30;99.90;;;;;;5000194;28;20830;-77
2021/06/24 03:25:25;;;;;;;13.63;12.63;;;18.30;99.90;;;;;;5025013;28;20506;-79
2021/06/24 03:27:51;;;;;;;13.67;12.50;;;18.20;99.90;;;;;;5021125;28;20450;-78
2021/06/24 03:30:17;;;;;;;14.77;13.37;;;18.20;99.90;;;;;;5028467;28;20850;-78
2021/06/24 03:32:43;;;;;;;14.87;13.27;;;18.10;99.90;;;;;;5021437;28;20692;-78
2021/06/24 03:35:10;;;;;;;12.63;11.63;;;18.10;99.90;;;;;;5019501;28;20450;-79
2021/06/24 03:37:36;;;;;;;12.90;11.60;;;18.00;99.90;;;;;;5027761;28;20214;-79
2021/06/24 03:40:06;;;;;;;13.17;12.10;;;18.00;99.90;;;;;;5027925;28;20493;-78
2021/06/24 03:42:31;;;;;;;13.80;12.60;;;18.00;99.90;;;;;;5018255;28;20464;-79
2021/06/24 03:44:57;;;;;;;14.07;12.87;;;18.00;99.90;;;;;;5023850;28;20432;-82
2021/06/24 03:47:23;;;;;;;14.03;11.93;;;18.10;99.90;;;;;;5031239;28;20321;-81
2021/06/24 03:49:49;;;;;;;12.60;11.30;;;18.00;99.90;;;;;;5040157;28;20205;-80
2021/06/24 03:52:14;;;;;;;11.83;10.80;;;18.10;99.90;;;;;;5035438;28;21029;-80
2021/06/24 03:54:40;;;;;;;13.10;11.90;;;18.10;99.90;;;;;;5030770;28;20319;-79
2021/06/24 03:57:06;;;;;;;13.30;12.00;;;18.10;99.90;;;;;;5028153;28;20226;-79
2021/06/24 03:59:32;;;;;;;12.70;11.60;;;18.10;99.90;;;;;;5027433;28;20772;-79
2021/06/24 04:01:57;;;;;;;12.13;11.20;;;18.10;99.90;;;;;;5029887;28;20425;-79
2021/06/24 04:04:23;;;;;;;12.63;11.60;;;18.20;99.90;;;;;;5023245;28;20180;-78
2021/06/24 04:06:49;;;;;;;11.93;10.93;;;18.20;99.90;;;;;;5016805;28;20187;-79
2021/06/24 04:09:15;;;;;;;12.40;11.50;;;18.10;99.90;;;;;;5027113;28;20188;-78
2021/06/24 04:11:41;;;;;;;11.80;10.87;;;18.10;99.90;;;;;;5029876;28;20179;-79
2021/06/24 04:14:06;;;;;;;12.10;11.20;;;18.10;99.90;;;;;;5028498;28;20210;-79
2021/06/24 04:16:33;;;;;;;12.37;11.20;;;18.10;99.90;;;;;;5027503;28;20434;-79
2021/06/24 04:18:58;;;;;;;12.67;11.67;;;18.10;99.90;;;;;;5024315;28;20234;-79
2021/06/24 04:21:24;;;;;;;12.87;11.80;;;18.20;99.90;;;;;;5029309;28;20421;-81
2021/06/24 04:23:50;;;;;;;13.03;11.83;;;18.10;99.90;;;;;;5013726;28;20718;-81
2021/06/24 04:26:15;;;;;;;12.83;11.83;;;18.10;99.90;;;;;;5019840;28;20219;-79
2021/06/24 04:28:41;;;;;;;14.23;12.87;;;18.10;99.90;;;;;;5013325;28;20203;-78
2021/06/24 04:31:07;;;;;;;12.70;11.73;;;18.20;99.90;;;;;;5028035;28;20180;-80
2021/06/24 04:33:34;;;;;;;12.47;11.40;;;18.20;99.90;;;;;;5021440;28;20225;-79
2021/06/24 04:36:00;;;;;;;13.67;12.53;;;18.10;99.90;;;;;;5029693;28;20179;-78
2021/06/24 04:38:25;;;;;;;14.70;13.47;;;18.00;99.90;;;;;;5007948;28;20470;-80
2021/06/24 04:40:51;;;;;;;13.30;12.30;;;18.10;99.90;;;;;;5017364;28;20265;-81
2021/06/24 04:43:17;;;;;;;13.53;12.43;;;18.00;99.90;;;;;;5022023;28;20200;-77
2021/06/24 04:45:42;;;;;;;13.47;12.37;;;18.10;99.90;;;;;;5026478;28;20187;-80
2021/06/24 04:48:08;;;;;;;12.77;11.77;;;18.00;99.90;;;;;;5014286;28;20215;-79
2021/06/24 04:50:36;;;;;;;15.67;13.77;;;18.00;99.90;;;;;;5016046;28;20191;-78
2021/06/24 04:53:02;;;;;;;14.10;12.80;;;18.00;99.90;;;;;;5026638;28;21025;-80
2021/06/24 04:55:38;;;;;;;14.10;12.90;;;17.90;99.90;;;;;;5021906;28;20954;-80
2021/06/24 04:58:03;;;;;;;13.40;12.30;;;17.90;99.90;;;;;;5014929;28;20458;-80
2021/06/24 05:00:29;;;;;;;13.23;12.13;;;17.90;99.90;;;;;;5021816;28;20434;-82
2021/06/24 05:02:55;;;;;;;13.60;12.60;;;17.90;99.90;;;;;;5030726;28;20211;-80
2021/06/24 05:05:21;;;;;;;13.73;12.53;;;17.80;99.90;;;;;;5030973;28;20180;-80
2021/06/24 05:07:46;;;;;;;13.87;12.77;;;17.80;99.90;;;;;;5026287;28;20432;-80
2021/06/24 05:10:13;;;;;;;15.43;14.23;;;17.80;99.90;;;;;;5027933;28;20189;-81
2021/06/24 05:12:39;;;;;;;14.60;13.50;;;17.80;99.90;;;;;;5023821;28;20203;-79
2021/06/24 05:15:05;;;;;;;16.00;14.33;;;17.90;99.90;;;;;;5027628;28;20430;-79
2021/06/24 05:17:31;;;;;;;14.87;13.57;;;17.70;99.90;;;;;;5013686;28;20188;-78
2021/06/24 05:19:58;;;;;;;15.40;14.13;;;17.70;99.90;;;;;;5013478;28;20636;-79
2021/06/24 05:22:25;;;;;;;16.13;14.80;;;17.80;99.90;;;;;;5011526;28;20249;-79
2021/06/24 05:24:51;;;;;;;15.87;14.57;;;17.80;99.90;;;;;;5029978;28;20418;-79
2021/06/24 05:27:16;;;;;;;19.03;16.40;;;17.90;99.90;;;;;;5028219;28;20465;-80
2021/06/24 05:29:42;;;;;;;17.00;15.70;;;17.80;99.90;;;;;;5034601;28;20252;-81
2021/06/24 05:32:07;;;;;;;16.77;15.37;;;17.80;99.90;;;;;;5032607;28;20195;-80
2021/06/24 05:34:33;;;;;;;16.87;15.47;;;17.80;99.90;;;;;;5031525;28;20184;-79
2021/06/24 05:37:03;;;;;;;17.13;15.57;;;17.80;99.90;;;;;;5019371;28;20643;-79
2021/06/24 05:39:29;;;;;;;16.27;14.87;;;17.80;99.90;;;;;;5018635;28;20282;-80
2021/06/24 05:41:56;;;;;;;16.90;15.53;;;17.90;99.90;;;;;;5010576;28;20431;-79
2021/06/24 05:44:23;;;;;;;17.03;15.50;;;17.90;99.90;;;;;;5008797;28;20270;-79
2021/06/24 05:46:49;;;;;;;17.87;16.37;;;17.90;99.90;;;;;;5029549;28;20837;-79
2021/06/24 05:49:15;;;;;;;17.33;15.93;;;17.90;99.90;;;;;;5018889;28;20438;-80
2021/06/24 05:51:41;;;;;;;18.63;17.03;;;18.00;99.90;;;;;;5032945;28;20438;-79
2021/06/24 05:54:06;;;;;;;17.40;15.70;;;18.00;99.90;;;;;;5031219;28;20207;-78
2021/06/24 05:56:32;;;;;;;17.30;15.73;;;18.10;99.90;;;;;;5024161;28;20237;-79
2021/06/24 05:58:57;;;;;;;16.90;15.50;;;18.00;99.90;;;;;;5024271;28;20208;-80
2021/06/24 06:01:23;;;;;;;18.47;16.93;;;18.00;99.90;;;;;;5021524;28;20274;-79
2021/06/24 06:03:49;;;;;;;17.70;15.70;;;18.10;99.90;;;;;;5029247;28;20224;-79
2021/06/24 06:06:14;;;;;;;16.60;15.40;;;18.10;99.90;;;;;;5025852;28;20189;-78
2021/06/24 06:08:40;;;;;;;17.53;15.87;;;18.20;99.90;;;;;;5031251;28;20192;-79
2021/06/24 06:11:06;;;;;;;17.27;15.77;;;18.20;99.90;;;;;;5023262;28;20246;-79
2021/06/24 06:13:31;;;;;;;16.80;15.37;;;18.20;99.90;;;;;;5033047;28;20204;-78
2021/06/24 06:15:57;;;;;;;16.30;15.00;;;18.30;99.90;;;;;;5026061;28;20184;-79
2021/06/24 06:18:25;;;;;;;18.23;16.73;;;18.30;99.90;;;;;;5027596;28;20195;-78
2021/06/24 06:20:52;;;;;;;18.00;16.37;;;18.30;99.90;;;;;;5012237;28;20192;-79
2021/06/24 06:23:19;;;;;;;17.63;16.03;;;18.30;99.90;;;;;;5013852;28;20455;-79
2021/06/24 06:25:45;;;;;;;16.77;15.13;;;18.20;99.90;;;;;;5027557;28;20498;-79
2021/06/24 06:28:13;;;;;;;17.60;16.10;;;18.20;99.90;;;;;;5026088;28;20505;-80
2021/06/24 06:30:38;;;;;;;17.87;16.27;;;18.30;99.90;;;;;;5031570;28;20468;-79
2021/06/24 06:33:04;;;;;;;18.07;16.37;;;18.30;99.90;;;;;;5019148;28;20967;-78
2021/06/24 06:35:31;;;;;;;16.60;15.10;;;18.40;99.90;;;;;;5022102;28;20195;-80
2021/06/24 06:37:56;;;;;;;17.23;15.73;;;18.40;99.90;;;;;;5023726;28;20190;-80
2021/06/24 06:40:22;;;;;;;16.33;14.93;;;18.40;99.90;;;;;;5024196;28;20417;-80
2021/06/24 06:42:48;;;;;;;17.13;15.67;;;18.50;99.90;;;;;;5013529;28;20209;-78
2021/06/24 06:45:14;;;;;;;17.27;15.70;;;18.40;99.90;;;;;;5022548;28;20701;-78
2021/06/24 06:47:40;;;;;;;16.73;15.43;;;18.40;99.90;;;;;;5025543;28;20534;-79
2021/06/24 06:50:06;;;;;;;18.40;16.90;;;18.40;99.90;;;;;;5022230;28;20422;-78
2021/06/24 06:52:32;;;;;;;18.23;16.77;;;18.40;99.90;;;;;;5022693;28;20512;-78
2021/06/24 06:54:58;;;;;;;17.27;15.80;;;18.40;99.90;;;;;;4999330;28;20431;-79
2021/06/24 06:57:23;;;;;;;17.37;15.97;;;18.40;99.90;;;;;;5009783;28;20187;-78
2021/06/24 06:59:49;;;;;;;18.30;16.67;;;18.40;99.90;;;;;;5008854;28;20264;-78
2021/06/24 07:02:14;;;;;;;17.97;16.30;;;18.40;99.90;;;;;;5020623;28;20216;-78
2021/06/24 07:04:40;;;;;;;18.47;16.83;;;18.40;99.90;;;;;;5024284;28;20189;-79
2021/06/24 07:07:06;;;;;;;17.03;15.63;;;18.40;99.90;;;;;;5022445;28;20183;-79
2021/06/24 07:09:31;;;;;;;18.47;16.90;;;18.50;99.90;;;;;;5026161;28;20540;-78
2021/06/24 07:11:57;;;;;;;17.07;15.47;;;18.50;99.90;;;;;;5025471;28;20194;-77
2021/06/24 07:14:23;;;;;;;17.60;16.00;;;18.40;99.90;;;;;;5019947;28;20182;-80
2021/06/24 07:16:49;;;;;;;17.13;15.63;;;18.40;99.90;;;;;;5027386;28;20183;-79
2021/06/24 07:19:14;;;;;;;16.73;15.30;;;18.50;99.90;;;;;;5019662;28;20236;-78
2021/06/24 07:21:40;;;;;;;17.20;15.80;;;18.50;99.90;;;;;;5016606;28;20482;-78
2021/06/24 07:24:07;;;;;;;17.97;16.37;;;18.50;99.90;;;;;;5003301;28;20204;-78
2021/06/24 07:26:33;;;;;;;15.93;14.73;;;18.60;99.90;;;;;;5024362;28;20683;-79
2021/06/24 07:28:59;;;;;;;16.83;15.33;;;18.60;99.90;;;;;;5026640;28;20465;-79
2021/06/24 07:31:25;;;;;;;15.93;14.63;;;18.70;99.90;;;;;;5030009;28;20802;-80
2021/06/24 07:33:50;;;;;;;16.53;15.13;;;18.70;99.90;;;;;;5026510;28;20597;-79
2021/06/24 07:36:16;;;;;;;16.90;15.60;;;18.70;99.90;;;;;;5018559;28;20190;-78
2021/06/24 07:38:42;;;;;;;16.70;15.33;;;18.80;99.90;;;;;;5031208;28;20672;-80
2021/06/24 07:41:07;;;;;;;17.23;15.60;;;18.80;99.90;;;;;;5028935;28;20671;-79
2021/06/24 07:43:33;;;;;;;15.47;14.20;;;18.80;99.90;;;;;;5024801;28;20234;-78
2021/06/24 07:45:59;;;;;;;16.27;14.97;;;18.80;99.90;;;;;;5020565;28;20210;-77
2021/06/24 07:48:24;;;;;;;16.63;15.33;;;18.90;99.90;;;;;;5019294;28;20202;-76
2021/06/24 07:50:50;;;;;;;16.87;15.37;;;18.90;99.90;;;;;;5026592;28;20190;-80
2021/06/24 07:53:15;;;;;;;17.00;15.60;;;19.00;99.90;;;;;;5025280;28;20269;-79
2021/06/24 07:55:41;;;;;;;17.93;16.43;;;18.90;99.90;;;;;;5020475;28;20246;-79
2021/06/24 07:58:08;;;;;;;16.20;14.90;;;18.90;99.90;;;;;;5023166;28;20191;-78
2021/06/24 08:00:36;;;;;;;17.90;16.50;;;19.00;99.90;;;;;;5012542;28;20697;-80
2021/06/24 08:03:03;;;;;;;17.23;15.63;;;19.00;99.90;;;;;;5030513;28;20449;-78
2021/06/24 08:05:29;;;;;;;17.90;16.37;;;19.00;99.90;;;;;;5027708;28;20445;-79
2021/06/24 08:07:55;;;;;;;16.30;14.80;;;19.00;99.90;;;;;;5024295;28;20430;-78
2021/06/24 08:10:21;;;;;;;18.13;16.63;;;18.90;99.90;;;;;;5021122;28;20426;-78
2021/06/24 08:12:47;;;;;;;18.00;16.50;;;18.90;99.90;;;;;;5012446;28;20320;-79
2021/06/24 08:15:15;;;;;;;17.03;15.53;;;18.90;99.90;;;;;;5023641;28;20422;-80
2021/06/24 08:17:42;;;;;;;17.60;16.00;;;18.90;99.90;;;;;;5006721;28;20439;-78
2021/06/24 08:20:09;;;;;;;17.90;16.27;;;18.90;99.90;;;;;;5023532;28;20527;-78
2021/06/24 08:22:35;;;;;;;16.67;15.27;;;18.90;99.90;;;;;;5007810;28;20469;-79
2021/06/24 08:25:01;;;;;;;16.27;15.00;;;18.90;99.90;;;;;;5025686;28;20418;-78
2021/06/24 08:27:26;;;;;;;18.87;17.37;;;18.90;99.90;;;;;;5019125;28;20513;-79
2021/06/24 08:29:52;;;;;;;17.10;15.70;;;18.90;99.90;;;;;;5027226;28;20187;-79
2021/06/24 08:32:18;;;;;;;15.70;14.40;;;19.00;99.90;;;;;;5022495;28;20252;-79
2021/06/24 08:34:43;;;;;;;17.77;16.47;;;19.10;99.90;;;;;;5023163;28;20191;-78
2021/06/24 08:37:09;;;;;;;17.57;16.07;;;19.10;99.90;;;;;;5019738;28;20190;-78
2021/06/24 08:39:35;;;;;;;17.20;15.80;;;19.00;99.90;;;;;;5022400;28;20244;-79
2021/06/24 08:42:02;;;;;;;16.37;15.07;;;19.00;99.90;;;;;;5028068;28;20431;-78
2021/06/24 08:44:28;;;;;;;18.13;16.77;;;19.00;99.90;;;;;;5027631;28;20186;-78
2021/06/24 08:46:58;;;;;;;18.00;16.40;;;19.00;99.90;;;;;;5021462;28;20423;-78
2021/06/24 08:49:26;;;;;;;17.77;16.23;;;19.00;99.90;;;;;;5020787;28;20190;-77
2021/06/24 08:51:53;;;;;;;17.87;15.87;;;19.00;99.90;;;;;;5023220;28;20477;-78
2021/06/24 08:54:19;;;;;;;18.00;16.60;;;19.00;99.90;;;;;;5030811;28;20442;-79
2021/06/24 08:56:45;;;;;;;16.70;15.20;;;18.90;99.90;;;;;;5036047;28;20442;-77
2021/06/24 08:59:11;;;;;;;17.30;15.90;;;18.90;99.90;;;;;;5030089;28;21004;-77
2021/06/24 09:02:09;;;;;;;16.50;15.00;;;18.80;99.90;;;;;;5013477;28;20422;-78
2021/06/24 09:04:35;;;;;;;17.90;16.20;;;18.90;99.90;;;;;;5023433;28;20195;-77
2021/06/24 09:07:09;;;;;;;17.33;15.90;;;18.90;99.90;;;;;;5025027;28;20523;-79
2021/06/24 09:09:37;;;;;;;17.10;15.70;;;18.90;99.90;;;;;;5038176;28;20226;-79
2021/06/24 09:12:10;;;;;;;19.37;17.57;;;18.80;99.90;;;;;;5029796;28;20507;-79
2021/06/24 09:14:44;;;;;;;18.63;17.13;;;18.90;99.90;;;;;;5042141;28;20502;-81
2021/06/24 09:17:11;;;;;;;17.60;16.20;;;18.90;99.90;;;;;;5025919;28;20439;-77
2021/06/24 09:19:43;;;;;;;17.27;15.87;;;18.90;99.90;;;;;;5024248;28;20879;-77
2021/06/24 09:22:11;;;;;;;18.47;16.90;;;18.90;99.90;;;;;;5007426;28;20878;-79
2021/06/24 09:24:43;;;;;;;17.13;15.83;;;18.90;99.90;;;;;;5024422;28;20410;-79
2021/06/24 09:27:17;;;;;;;18.23;16.73;;;19.00;99.90;;;;;;5029098;28;20421;-78
2021/06/24 09:30:08;;;;;;;17.60;16.10;;;19.00;99.90;;;;;;5026617;28;20417;-80
2021/06/24 09:32:36;;;;;;;16.13;14.83;;;19.00;99.90;;;;;;5008631;28;20462;-80
2021/06/24 09:35:07;;;;;;;17.93;16.43;;;18.90;99.90;;;;;;5010267;28;20864;-80
2021/06/24 09:38:02;;;;;;;17.70;16.00;;;18.90;99.90;;;;;;5028114;28;20528;-78
2021/06/24 09:40:52;;;;;;;17.67;16.03;;;18.90;99.90;;;;;;5024579;28;21001;-78
2021/06/24 09:43:31;;;;;;;18.87;16.93;;;18.80;99.90;;;;;;5021942;28;20453;-80
2021/06/24 09:46:06;;;;;;;18.10;16.70;;;18.90;99.90;;;;;;5032886;28;20429;-79
2021/06/24 09:48:37;;;;;;;16.50;15.30;;;18.90;99.90;;;;;;5010602;28;20747;-78
2021/06/24 09:51:33;;;;;;;16.40;14.97;;;18.90;99.90;;;;;;5031979;28;20421;-79
2021/06/24 09:54:17;;;;;;;16.50;15.17;;;18.90;99.90;;;;;;5003973;28;20463;-78
2021/06/24 09:56:46;;;;;;;18.57;16.93;;;18.90;99.90;;;;;;5017726;28;20414;-81
2021/06/24 09:59:16;;;;;;;16.67;15.37;;;18.90;99.90;;;;;;5023265;28;21041;-79
2021/06/24 10:01:47;;;;;;;17.83;16.37;;;18.90;99.90;;;;;;5020539;28;20419;-79
2021/06/24 10:04:23;;;;;;;17.17;15.83;;;19.00;99.90;;;;;;5026086;28;21090;-79
2021/06/24 10:06:51;;;;;;;16.07;14.67;;;18.90;99.90;;;;;;5032145;28;20422;-79
2021/06/24 10:09:17;;;;;;;17.37;15.83;;;18.90;99.90;;;;;;5027658;28;20418;-79
2021/06/24 10:11:44;;;;;;;20.20;15.40;;;19.00;99.90;;;;;;5029397;28;20422;-79
2021/06/24 10:14:10;;;;;;;16.60;15.17;;;18.90;99.90;;;;;;5029810;28;20454;-80
2021/06/24 10:16:36;;;;;;;16.77;15.40;;;18.90;99.90;;;;;;5018484;28;21020;-80
2021/06/24 10:19:05;;;;;;;18.03;16.50;;;19.00;99.90;;;;;;5014330;28;20508;-79
2021/06/24 10:21:34;;;;;;;17.30;15.90;;;19.00;99.90;;;;;;5029388;28;20449;-79
2021/06/24 10:24:12;;;;;;;15.70;14.50;;;19.00;99.90;;;;;;5020803;28;20438;-78
2021/06/24 10:26:41;;;;;;;15.97;14.63;;;19.00;99.90;;;;;;5027223;28;20433;-79
2021/06/24 10:29:15;;;;;;;17.40;15.90;;;19.00;99.90;;;;;;5031534;28;20433;-79
2021/06/24 10:31:47;;;;;;;16.50;15.10;;;19.10;99.90;;;;;;5031095;28;20494;-77
2021/06/24 10:34:15;;;;;;;15.17;13.97;;;19.20;99.90;;;;;;5023480;28;21004;-81
2021/06/24 10:37:09;;;;;;;16.43;15.03;;;19.20;99.90;;;;;;5024502;28;20514;-79
2021/06/24 10:39:36;;;;;;;16.40;15.10;;;19.20;99.90;;;;;;5014726;28;20971;-78
2021/06/24 10:42:04;;;;;;;16.60;15.20;;;19.20;99.90;;;;;;5023232;28;20461;-80
2021/06/24 10:44:52;;;;;;;16.13;14.80;;;19.20;99.90;;;;;;5031436;28;20846;-79
2021/06/24 10:47:39;;;;;;;16.27;14.97;;;19.20;99.90;;;;;;5019374;28;20416;-80
2021/06/24 10:50:26;;;;;;;15.93;14.63;;;19.20;99.90;;;;;;5027674;28;20445;-80
2021/06/24 10:53:12;;;;;;;16.30;14.80;;;19.30;99.90;;;;;;5015183;28;20453;-78
2021/06/24 10:55:40;;;;;;;14.77;13.60;;;19.30;99.90;;;;;;5025750;28;20484;-78
2021/06/24 10:58:17;;;;;;;14.80;13.67;;;19.40;99.90;;;;;;5025589;28;20951;-80
2021/06/24 11:00:47;;;;;;;15.83;14.53;;;19.40;99.90;;;;;;5021375;28;20722;-80
2021/06/24 11:03:14;;;;;;;15.73;14.33;;;19.40;99.90;;;;;;5021745;28;20519;-78
2021/06/24 11:05:45;;;;;;;15.47;14.27;;;19.50;99.90;;;;;;5017650;28;20416;-80
2021/06/24 11:08:27;;;;;;;16.17;14.90;;;19.50;99.90;;;;;;5019995;28;20414;-81
2021/06/24 11:10:54;;;;;;;14.40;13.13;;;19.60;99.90;;;;;;5028590;28;20407;-80
2021/06/24 11:13:38;;;;;;;14.97;13.70;;;19.60;99.90;;;;;;5026892;28;20509;-79
2021/06/24 11:16:15;;;;;;;17.30;15.90;;;19.70;99.90;;;;;;5025051;28;20498;-79
2021/06/24 11:18:40;;;;;;;15.40;14.27;;;19.80;99.90;;;;;;5025129;28;20460;-78
2021/06/24 11:21:10;;;;;;;16.60;15.30;;;19.90;99.90;;;;;;5020025;28;20453;-79
2021/06/24 11:23:44;;;;;;;16.53;15.03;;;20.00;99.90;;;;;;5013938;28;20219;-78
2021/06/24 11:26:13;;;;;;;15.67;14.30;;;20.00;99.90;;;;;;5018713;28;20767;-79
2021/06/24 11:28:55;;;;;;;18.17;16.43;;;20.10;99.90;;;;;;5011828;28;20429;-78
2021/06/24 11:31:37;;;;;;;17.77;16.30;;;20.20;99.90;;;;;;5022840;28;20410;-78
2021/06/24 11:34:49;;;;;;;16.67;15.20;;;20.20;99.90;;;;;;5026984;28;20461;-80
2021/06/24 11:36:56;;;;;;;16.30;14.90;;;20.20;99.90;;;;;;5016416;28;20430;-81
2021/06/24 11:39:28;;;;;;;15.03;13.83;;;20.30;99.90;;;;;;5030746;28;20454;-81
2021/06/24 11:41:57;;;;;;;15.60;14.23;;;20.50;99.90;;;;;;5020119;28;20761;-79
2021/06/24 11:44:31;;;;;;;16.33;14.90;;;20.50;99.90;;;;;;5022279;28;20772;-78
2021/06/24 11:47:12;;;;;;;13.47;12.37;;;20.60;99.90;;;;;;5019368;28;20445;-79
2021/06/24 12:04:04;;;;;;;14.20;13.00;;;21.10;99.90;;;;;;5025366;28;20446;-79
2021/06/24 12:06:53;;;;;;;12.60;11.50;;;21.20;99.90;;;;;;5007829;28;20512;-79
2021/06/24 12:09:27;;;;;;;13.27;12.17;;;21.20;99.90;;;;;;5025773;28;20512;-78
2021/06/24 12:12:00;;;;;;;13.47;12.47;;;21.30;99.90;;;;;;5033589;28;20436;-79
2021/06/24 12:14:29;;;;;;;12.17;11.27;;;21.50;99.90;;;;;;5018185;28;20434;-79
2021/06/24 12:17:20;;;;;;;13.63;12.43;;;21.50;99.90;;;;;;5038223;28;20410;-79
2021/06/24 12:20:03;;;;;;;13.97;12.90;;;21.50;99.90;;;;;;5030929;28;20486;-78
2021/06/24 12:22:36;;;;;;;13.50;12.30;;;21.50;99.90;;;;;;5023959;28;20467;-83
2021/06/24 12:25:08;;;;;;;13.80;12.70;;;21.50;99.90;;;;;;5033535;28;20769;-79
2021/06/24 12:27:43;;;;;;;11.87;10.90;;;21.30;99.90;;;;;;5024976;28;20437;-79
2021/06/24 12:30:23;;;;;;;12.40;11.47;;;21.30;99.90;;;;;;5026208;28;20437;-79
2021/06/24 12:33:03;;;;;;;12.23;11.13;;;21.30;99.90;;;;;;5022703;28;20438;-79
2021/06/24 12:35:38;;;;;;;12.47;11.47;;;21.20;99.90;;;;;;5007812;28;20449;-80
2021/06/24 12:38:12;;;;;;;11.33;10.50;;;21.30;99.90;;;;;;5031937;28;20471;-79
2021/06/24 12:40:44;;;;;;;13.10;12.10;;;21.40;99.90;;;;;;5017449;28;21679;-80
2021/06/24 12:43:16;;;;;;;11.70;10.80;;;21.40;99.90;;;;;;5025707;28;20450;-80
2021/06/24 12:45:43;;;;;;;13.00;11.80;;;21.40;99.90;;;;;;5031732;28;20418;-80
2021/06/24 12:48:29;;;;;;;13.27;12.27;;;21.50;99.90;;;;;;5026373;28;20898;-79
2021/06/24 12:51:02;;;;;;;13.37;12.13;;;21.70;99.90;;;;;;5021445;28;20506;-79